sensor_id;sensor_type;location;lat;lon;timestamp;temperature;humidity
6260;DHT22;3163;51.516;4.000;2023-10-09T00:02:23;20.30;99.90
6260;DHT22;3163;51.516;4.000;2023-10-09T00:04:49;20.30;99.90
6260;DHT22;3163;51.516;4.000;2023-10-09T00:07:17;20.30;99.90
6260;DHT22;3163;51.516;4.000;2023-10-09T00:09:43;20.30;99.90
6260;DHT22;3163;51.516;4.000;2023-10-09T00:12:18;20.20;99.90
6260;DHT22;3163;51.516;4.000;2023-10-09T00:14:50;20.20;99.90
6260;DHT22;3163;51.516;4.000;2023-10-09T00:17:20;20.20;99.90
6260;DHT22;3163;51.516;4.000;2023-10-09T00:19:49;20.10;99.90
6260;DHT22;3163;51.516;4.000;2023-10-09T00:22:17;20.10;99.90
6260;DHT22;3163;51.516;4.000;2023-10-09T00:24:56;20.20;99.90
6260;DHT22;3163;51.516;4.000;2023-10-09T00:27:42;20.20;99.90
6260;DHT22;3163;51.516;4.000;2023-10-09T00:30:12;20.10;99.90
6260;DHT22;3163;51.516;4.000;2023-10-09T00:32:44;20.10;99.90
6260;DHT22;3163;51.516;4.000;2023-10-09T00:35:27;20.10;99.90
6260;DHT22;3163;51.516;4.000;2023-10-09T00:38:03;20.10;99.90
6260;DHT22;3163;51.516;4.000;2023-10-09T00:40:52;20.10;99.90
6260;DHT22;3163;51.516;4.000;2023-10-09T00:43:30;20.10;99.90
6260;DHT22;3163;51.516;4.000;2023-10-09T00:46:00;20.10;99.90
6260;DHT22;3163;51.516;4.000;2023-10-09T00:48:37;20.20;99.90
6260;DHT22;3163;51.516;4.000;2023-10-09T00:51:07;20.10;99.90
6260;DHT22;3163;51.516;4.000;2023-10-09T00:53:46;20.10;99.90
6260;DHT22;3163;51.516;4.000;2023-10-09T00:56:18;20.10;99.90
6260;DHT22;3163;51.516;4.000;2023-10-09T00:58:47;20.10;99.90
6260;DHT22;3163;51.516;4.000;2023-10-09T01:01:15;20.00;99.90
6260;DHT22;3163;51.516;4.000;2023-10-09T01:03:42;20.00;99.90
6260;DHT22;3163;51.516;4.000;2023-10-09T01:06:10;19.90;99.90
6260;DHT22;3163;51.516;4.000;2023-10-09T01:08:38;19.90;99.90
6260;DHT22;3163;51.516;4.000;2023-10-09T01:11:16;19.90;99.90
6260;DHT22;3163;51.516;4.000;2023-10-09T01:13:49;19.90;99.90
6260;DHT22;3163;51.516;4.000;2023-10-09T01:16:20;20.00;99.90
6260;DHT22;3163;51.516;4.000;2023-10-09T01:18:54;20.10;99.90
6260;DHT22;3163;51.516;4.000;2023-10-09T01:21:22;20.10;99.90
6260;DHT22;3163;51.516;4.000;2023-10-09T01:23:53;20.10;99.90
6260;DHT22;3163;51.516;4.000;2023-10-09T01:26:29;20.10;99.90
6260;DHT22;3163;51.516;4.000;2023-10-09T01:29:00;20.10;99.90
6260;DHT22;3163;51.516;4.000;2023-10-09T01:31:27;20.10;99.90
6260;DHT22;3163;51.516;4.000;2023-10-09T01:33:53;20.00;99.90
6260;DHT22;3163;51.516;4.000;2023-10-09T01:36:25;20.00;99.90
6260;DHT22;3163;51.516;4.000;2023-10-09T01:39:00;19.90;99.90
6260;DHT22;3163;51.516;4.000;2023-10-09T01:41:56;19.90;99.90
6260;DHT22;3163;51.516;4.000;2023-10-09T01:44:26;19.90;99.90
6260;DHT22;3163;51.516;4.000;2023-10-09T01:46:52;19.90;99.90
6260;DHT22;3163;51.516;4.000;2023-10-09T01:49:21;19.90;99.90
6260;DHT22;3163;51.516;4.000;2023-10-09T01:51:58;19.90;99.90
6260;DHT22;3163;51.516;4.000;2023-10-09T01:54:26;19.90;99.90
6260;DHT22;3163;51.516;4.000;2023-10-09T01:57:07;19.90;99.90
6260;DHT22;3163;51.516;4.000;2023-10-09T01:59:41;20.00;99.90
6260;DHT22;3163;51.516;4.000;2023-10-09T02:02:10;20.00;99.90
6260;DHT22;3163;51.516;4.000;2023-10-09T02:05:09;20.00;99.90
6260;DHT22;3163;51.516;4.000;2023-10-09T02:07:44;19.90;99.90
6260;DHT22;3163;51.516;4.000;2023-10-09T02:10:13;19.90;99.90
6260;DHT22;3163;51.516;4.000;2023-10-09T02:13:02;19.90;99.90
6260;DHT22;3163;51.516;4.000;2023-10-09T02:15:39;19.90;99.90
6260;DHT22;3163;51.516;4.000;2023-10-09T02:18:09;19.90;99.90
6260;DHT22;3163;51.516;4.000;2023-10-09T02:23:30;19.80;99.90
6260;DHT22;3163;51.516;4.000;2023-10-09T02:26:09;19.80;99.90
6260;DHT22;3163;51.516;4.000;2023-10-09T02:28:36;19.70;99.90
6260;DHT22;3163;51.516;4.000;2023-10-09T02:31:10;19.80;99.90
6260;DHT22;3163;51.516;4.000;2023-10-09T02:33:36;19.70;99.90
6260;DHT22;3163;51.516;4.000;2023-10-09T02:36:05;19.80;99.90
6260;DHT22;3163;51.516;4.000;2023-10-09T02:38:32;19.80;99.90
6260;DHT22;3163;51.516;4.000;2023-10-09T02:41:08;19.70;99.90
6260;DHT22;3163;51.516;4.000;2023-10-09T02:43:39;19.80;99.90
6260;DHT22;3163;51.516;4.000;2023-10-09T02:46:19;19.80;99.90
6260;DHT22;3163;51.516;4.000;2023-10-09T02:48:49;19.80;99.90
6260;DHT22;3163;51.516;4.000;2023-10-09T02:51:24;19.80;99.90
6260;DHT22;3163;51.516;4.000;2023-10-09T02:53:58;19.80;99.90
6260;DHT22;3163;51.516;4.000;2023-10-09T02:56:24;19.70;99.90
6260;DHT22;3163;51.516;4.000;2023-10-09T02:59:01;19.70;99.90
6260;DHT22;3163;51.516;4.000;2023-10-09T03:01:31;19.70;99.90
6260;DHT22;3163;51.516;4.000;2023-10-09T03:03:57;19.70;99.90
6260;DHT22;3163;51.516;4.000;2023-10-09T03:06:27;19.70;99.90
6260;DHT22;3163;51.516;4.000;2023-10-09T03:08:56;19.70;99.90
6260;DHT22;3163;51.516;4.000;2023-10-09T03:11:22;19.70;99.90
6260;DHT22;3163;51.516;4.000;2023-10-09T03:13:49;19.70;99.90
6260;DHT22;3163;51.516;4.000;2023-10-09T03:16:15;19.80;99.90
6260;DHT22;3163;51.516;4.000;2023-10-09T03:18:50;19.80;99.90
6260;DHT22;3163;51.516;4.000;2023-10-09T03:21:16;19.80;99.90
6260;DHT22;3163;51.516;4.000;2023-10-09T03:23:46;19.90;99.90
6260;DHT22;3163;51.516;4.000;2023-10-09T03:26:18;19.90;99.90
6260;DHT22;3163;51.516;4.000;2023-10-09T03:28:48;19.90;99.90
6260;DHT22;3163;51.516;4.000;2023-10-09T03:31:14;19.90;99.90
6260;DHT22;3163;51.516;4.000;2023-10-09T03:33:40;19.90;99.90
6260;DHT22;3163;51.516;4.000;2023-10-09T03:36:07;19.80;99.90
6260;DHT22;3163;51.516;4.000;2023-10-09T03:38:38;19.90;99.90
6260;DHT22;3163;51.516;4.000;2023-10-09T03:41:05;19.90;99.90
6260;DHT22;3163;51.516;4.000;2023-10-09T03:43:35;19.90;99.90
6260;DHT22;3163;51.516;4.000;2023-10-09T03:46:10;19.90;99.90
6260;DHT22;3163;51.516;4.000;2023-10-09T03:48:52;19.90;99.90
6260;DHT22;3163;51.516;4.000;2023-10-09T03:51:23;19.90;99.90
6260;DHT22;3163;51.516;4.000;2023-10-09T03:53:49;19.90;99.90
6260;DHT22;3163;51.516;4.000;2023-10-09T03:56:15;19.90;99.90
6260;DHT22;3163;51.516;4.000;2023-10-09T03:58:46;19.90;99.90
6260;DHT22;3163;51.516;4.000;2023-10-09T04:01:19;19.80;99.90
6260;DHT22;3163;51.516;4.000;2023-10-09T04:03:55;19.80;99.90
6260;DHT22;3163;51.516;4.000;2023-10-09T04:06:24;19.90;99.90
6260;DHT22;3163;51.516;4.000;2023-10-09T04:09:09;19.90;99.90
6260;DHT22;3163;51.516;4.000;2023-10-09T04:11:47;19.90;99.90
6260;DHT22;3163;51.516;4.000;2023-10-09T04:14:15;19.80;99.90
6260;DHT22;3163;51.516;4.000;2023-10-09T04:16:58;19.80;99.90
6260;DHT22;3163;51.516;4.000;2023-10-09T04:19:52;19.90;99.90
6260;DHT22;3163;51.516;4.000;2023-10-09T04:22:37;19.80;99.90
6260;DHT22;3163;51.516;4.000;2023-10-09T04:25:08;19.70;99.90
6260;DHT22;3163;51.516;4.000;2023-10-09T04:27:40;19.70;99.90
6260;DHT22;3163;51.516;4.000;2023-10-09T04:30:07;19.70;99.90
6260;DHT22;3163;51.516;4.000;2023-10-09T04:32:33;19.70;99.90
6260;DHT22;3163;51.516;4.000;2023-10-09T04:35:00;19.70;99.90
6260;DHT22;3163;51.516;4.000;2023-10-09T04:37:45;19.60;99.90
6260;DHT22;3163;51.516;4.000;2023-10-09T04:40:18;19.60;99.90
6260;DHT22;3163;51.516;4.000;2023-10-09T04:43:03;19.60;99.90
6260;DHT22;3163;51.516;4.000;2023-10-09T04:45:38;19.60;99.90
6260;DHT22;3163;51.516;4.000;2023-10-09T04:48:23;19.60;99.90
6260;DHT22;3163;51.516;4.000;2023-10-09T04:51:07;19.60;99.90
6260;DHT22;3163;51.516;4.000;2023-10-09T04:53:52;19.70;99.90
6260;DHT22;3163;51.516;4.000;2023-10-09T04:56:36;19.70;99.90
6260;DHT22;3163;51.516;4.000;2023-10-09T04:59:19;19.70;99.90
6260;DHT22;3163;51.516;4.000;2023-10-09T05:01:53;19.70;99.90
6260;DHT22;3163;51.516;4.000;2023-10-09T05:04:25;19.70;99.90
6260;DHT22;3163;51.516;4.000;2023-10-09T05:07:06;19.70;99.90
6260;DHT22;3163;51.516;4.000;2023-10-09T05:10:02;19.70;99.90
6260;DHT22;3163;51.516;4.000;2023-10-09T05:12:50;19.70;99.90
6260;DHT22;3163;51.516;4.000;2023-10-09T05:15:25;19.70;99.90
6260;DHT22;3163;51.516;4.000;2023-10-09T05:17:52;19.70;99.90
6260;DHT22;3163;51.516;4.000;2023-10-09T05:20:23;19.70;99.90
6260;DHT22;3163;51.516;4.000;2023-10-09T05:22:49;19.70;99.90
6260;DHT22;3163;51.516;4.000;2023-10-09T05:25:37;19.70;99.90
6260;DHT22;3163;51.516;4.000;2023-10-09T05:28:23;19.70;99.90
6260;DHT22;3163;51.516;4.000;2023-10-09T05:31:14;19.80;99.90
6260;DHT22;3163;51.516;4.000;2023-10-09T05:34:00;19.70;99.90
6260;DHT22;3163;51.516;4.000;2023-10-09T05:36:27;19.70;99.90
6260;DHT22;3163;51.516;4.000;2023-10-09T05:38:53;19.60;99.90
6260;DHT22;3163;51.516;4.000;2023-10-09T05:41:25;19.60;99.90
6260;DHT22;3163;51.516;4.000;2023-10-09T05:44:13;19.60;99.90
6260;DHT22;3163;51.516;4.000;2023-10-09T05:46:57;19.60;99.90
6260;DHT22;3163;51.516;4.000;2023-10-09T05:49:41;19.60;99.90
6260;DHT22;3163;51.516;4.000;2023-10-09T05:52:22;19.60;99.90
6260;DHT22;3163;51.516;4.000;2023-10-09T05:55:17;19.60;99.90
6260;DHT22;3163;51.516;4.000;2023-10-09T05:58:03;19.70;99.90
6260;DHT22;3163;51.516;4.000;2023-10-09T06:00:29;19.60;99.90
6260;DHT22;3163;51.516;4.000;2023-10-09T06:03:13;19.60;99.90
6260;DHT22;3163;51.516;4.000;2023-10-09T06:05:52;19.50;99.90
6260;DHT22;3163;51.516;4.000;2023-10-09T06:08:25;19.50;99.90
6260;DHT22;3163;51.516;4.000;2023-10-09T06:11:07;19.40;99.90
6260;DHT22;3163;51.516;4.000;2023-10-09T06:13:53;19.40;99.90
6260;DHT22;3163;51.516;4.000;2023-10-09T06:16:33;19.40;99.90
6260;DHT22;3163;51.516;4.000;2023-10-09T06:19:28;19.40;99.90
6260;DHT22;3163;51.516;4.000;2023-10-09T06:21:58;19.50;99.90
6260;DHT22;3163;51.516;4.000;2023-10-09T06:24:43;19.50;99.90
6260;DHT22;3163;51.516;4.000;2023-10-09T06:27:21;19.60;99.90
6260;DHT22;3163;51.516;4.000;2023-10-09T06:29:56;19.70;99.90
6260;DHT22;3163;51.516;4.000;2023-10-09T06:32:41;19.70;99.90
6260;DHT22;3163;51.516;4.000;2023-10-09T06:35:25;19.80;99.90
6260;DHT22;3163;51.516;4.000;2023-10-09T06:37:58;19.80;99.90
6260;DHT22;3163;51.516;4.000;2023-10-09T06:40:34;19.70;99.90
6260;DHT22;3163;51.516;4.000;2023-10-09T06:43:24;19.80;99.90
6260;DHT22;3163;51.516;4.000;2023-10-09T06:45:50;19.80;99.90
6260;DHT22;3163;51.516;4.000;2023-10-09T06:48:35;19.90;99.90
6260;DHT22;3163;51.516;4.000;2023-10-09T06:51:04;20.00;99.90
6260;DHT22;3163;51.516;4.000;2023-10-09T06:53:41;20.00;99.90
6260;DHT22;3163;51.516;4.000;2023-10-09T06:56:27;20.20;99.90
6260;DHT22;3163;51.516;4.000;2023-10-09T06:58:59;20.20;99.90
6260;DHT22;3163;51.516;4.000;2023-10-09T07:01:29;20.20;99.90
6260;DHT22;3163;51.516;4.000;2023-10-09T07:04:08;20.30;99.90
6260;DHT22;3163;51.516;4.000;2023-10-09T07:06:53;20.40;99.90
6260;DHT22;3163;51.516;4.000;2023-10-09T07:09:22;20.40;99.90
6260;DHT22;3163;51.516;4.000;2023-10-09T07:11:49;20.40;99.90
6260;DHT22;3163;51.516;4.000;2023-10-09T07:14:20;20.50;99.90
6260;DHT22;3163;51.516;4.000;2023-10-09T07:17:05;20.40;99.90
6260;DHT22;3163;51.516;4.000;2023-10-09T07:20:09;20.50;99.90
6260;DHT22;3163;51.516;4.000;2023-10-09T07:23:07;20.50;99.90
6260;DHT22;3163;51.516;4.000;2023-10-09T07:25:43;20.50;99.90
6260;DHT22;3163;51.516;4.000;2023-10-09T07:28:25;20.60;99.90
6260;DHT22;3163;51.516;4.000;2023-10-09T07:31:02;20.50;99.90
6260;DHT22;3163;51.516;4.000;2023-10-09T07:33:28;20.60;99.90
6260;DHT22;3163;51.516;4.000;2023-10-09T07:36:17;20.50;99.90
6260;DHT22;3163;51.516;4.000;2023-10-09T07:38:55;20.60;99.90
6260;DHT22;3163;51.516;4.000;2023-10-09T07:41:21;20.60;99.90
6260;DHT22;3163;51.516;4.000;2023-10-09T07:43:46;20.60;99.90
6260;DHT22;3163;51.516;4.000;2023-10-09T07:46:16;20.60;99.90
6260;DHT22;3163;51.516;4.000;2023-10-09T07:49:00;20.60;99.90
6260;DHT22;3163;51.516;4.000;2023-10-09T07:51:37;20.70;99.90
6260;DHT22;3163;51.516;4.000;2023-10-09T07:54:03;20.70;99.90
6260;DHT22;3163;51.516;4.000;2023-10-09T07:56:41;20.40;99.90
6260;DHT22;3163;51.516;4.000;2023-10-09T07:59:10;20.40;99.90
6260;DHT22;3163;51.516;4.000;2023-10-09T08:01:43;20.70;99.90
6260;DHT22;3163;51.516;4.000;2023-10-09T08:04:19;20.80;99.90
6260;DHT22;3163;51.516;4.000;2023-10-09T08:09:35;20.90;99.90
6260;DHT22;3163;51.516;4.000;2023-10-09T08:12:14;20.90;99.90
6260;DHT22;3163;51.516;4.000;2023-10-09T08:15:18;20.90;99.90
6260;DHT22;3163;51.516;4.000;2023-10-09T08:17:45;20.90;99.90
6260;DHT22;3163;51.516;4.000;2023-10-09T08:20:25;20.90;99.90
6260;DHT22;3163;51.516;4.000;2023-10-09T08:22:52;21.00;99.90
6260;DHT22;3163;51.516;4.000;2023-10-09T08:25:21;21.00;99.90
6260;DHT22;3163;51.516;4.000;2023-10-09T08:28:02;21.00;99.90
6260;DHT22;3163;51.516;4.000;2023-10-09T08:30:47;21.10;99.90
6260;DHT22;3163;51.516;4.000;2023-10-09T08:33:28;21.00;99.90
6260;DHT22;3163;51.516;4.000;2023-10-09T08:36:07;21.10;99.90
6260;DHT22;3163;51.516;4.000;2023-10-09T08:38:33;21.20;99.90
6260;DHT22;3163;51.516;4.000;2023-10-09T08:41:26;21.10;99.90
6260;DHT22;3163;51.516;4.000;2023-10-09T08:43:56;21.10;99.90
6260;DHT22;3163;51.516;4.000;2023-10-09T08:46:24;21.20;99.90
6260;DHT22;3163;51.516;4.000;2023-10-09T08:48:56;21.10;99.90
6260;DHT22;3163;51.516;4.000;2023-10-09T08:51:27;21.20;99.90
6260;DHT22;3163;51.516;4.000;2023-10-09T08:53:53;21.20;99.90
6260;DHT22;3163;51.516;4.000;2023-10-09T08:56:21;21.30;99.90
6260;DHT22;3163;51.516;4.000;2023-10-09T08:58:57;21.30;99.90
6260;DHT22;3163;51.516;4.000;2023-10-09T09:01:23;21.20;99.90
6260;DHT22;3163;51.516;4.000;2023-10-09T09:03:50;21.30;99.90
6260;DHT22;3163;51.516;4.000;2023-10-09T09:06:18;21.30;99.90
6260;DHT22;3163;51.516;4.000;2023-10-09T09:08:45;21.40;99.90
6260;DHT22;3163;51.516;4.000;2023-10-09T09:11:13;21.40;99.90
6260;DHT22;3163;51.516;4.000;2023-10-09T09:16:34;21.40;99.90
6260;DHT22;3163;51.516;4.000;2023-10-09T09:19:07;21.30;99.90
6260;DHT22;3163;51.516;4.000;2023-10-09T09:21:37;21.40;99.90
6260;DHT22;3163;51.516;4.000;2023-10-09T09:24:05;21.40;99.90
6260;DHT22;3163;51.516;4.000;2023-10-09T09:26:49;21.30;99.90
6260;DHT22;3163;51.516;4.000;2023-10-09T09:32:02;21.30;99.90
6260;DHT22;3163;51.516;4.000;2023-10-09T09:34:51;21.30;99.90
6260;DHT22;3163;51.516;4.000;2023-10-09T09:37:27;21.30;99.90
6260;DHT22;3163;51.516;4.000;2023-10-09T09:39:59;21.40;99.90
6260;DHT22;3163;51.516;4.000;2023-10-09T09:42:27;21.40;99.90
6260;DHT22;3163;51.516;4.000;2023-10-09T09:44:53;21.50;99.90
6260;DHT22;3163;51.516;4.000;2023-10-09T09:47:21;21.60;99.90
6260;DHT22;3163;51.516;4.000;2023-10-09T09:49:54;21.60;99.90
6260;DHT22;3163;51.516;4.000;2023-10-09T09:52:30;21.60;99.90
6260;DHT22;3163;51.516;4.000;2023-10-09T09:55:04;21.70;99.90
6260;DHT22;3163;51.516;4.000;2023-10-09T09:57:32;21.70;99.90
6260;DHT22;3163;51.516;4.000;2023-10-09T10:00:05;21.70;99.90
6260;DHT22;3163;51.516;4.000;2023-10-09T10:02:37;21.70;99.90
6260;DHT22;3163;51.516;4.000;2023-10-09T10:05:07;21.70;99.90
6260;DHT22;3163;51.516;4.000;2023-10-09T10:07:37;21.80;99.90
6260;DHT22;3163;51.516;4.000;2023-10-09T10:10:34;21.80;99.90
6260;DHT22;3163;51.516;4.000;2023-10-09T10:13:05;21.80;99.90
6260;DHT22;3163;51.516;4.000;2023-10-09T10:19:02;21.80;99.90
6260;DHT22;3163;51.516;4.000;2023-10-09T10:21:37;21.90;99.90
6260;DHT22;3163;51.516;4.000;2023-10-09T10:29:35;21.80;99.90
6260;DHT22;3163;51.516;4.000;2023-10-09T10:32:04;21.90;99.90
6260;DHT22;3163;51.516;4.000;2023-10-09T10:37:12;21.90;99.90
6260;DHT22;3163;51.516;4.000;2023-10-09T10:39:50;22.00;99.90
6260;DHT22;3163;51.516;4.000;2023-10-09T10:42:16;22.00;99.90
6260;DHT22;3163;51.516;4.000;2023-10-09T10:45:04;22.10;99.90
6260;DHT22;3163;51.516;4.000;2023-10-09T10:47:49;22.10;99.90
6260;DHT22;3163;51.516;4.000;2023-10-09T10:50:17;22.00;99.90
6260;DHT22;3163;51.516;4.000;2023-10-09T10:53:08;22.10;99.90
6260;DHT22;3163;51.516;4.000;2023-10-09T10:55:38;22.10;99.90
6260;DHT22;3163;51.516;4.000;2023-10-09T10:58:17;22.00;99.90
6260;DHT22;3163;51.516;4.000;2023-10-09T11:00:56;22.10;99.90
6260;DHT22;3163;51.516;4.000;2023-10-09T11:03:22;22.10;99.90
6260;DHT22;3163;51.516;4.000;2023-10-09T11:06:07;22.10;99.90
6260;DHT22;3163;51.516;4.000;2023-10-09T11:08:47;22.10;99.90
6260;DHT22;3163;51.516;4.000;2023-10-09T11:11:24;22.20;99.90
6260;DHT22;3163;51.516;4.000;2023-10-09T11:14:10;22.30;99.90
6260;DHT22;3163;51.516;4.000;2023-10-09T11:16:40;22.40;99.90
6260;DHT22;3163;51.516;4.000;2023-10-09T11:19:14;22.50;99.90
6260;DHT22;3163;51.516;4.000;2023-10-09T11:21:55;22.50;99.90
6260;DHT22;3163;51.516;4.000;2023-10-09T11:24:47;22.50;99.90
6260;DHT22;3163;51.516;4.000;2023-10-09T11:27:25;22.40;99.90
6260;DHT22;3163;51.516;4.000;2023-10-09T11:29:54;22.40;99.90
6260;DHT22;3163;51.516;4.000;2023-10-09T11:32:21;22.40;99.90
6260;DHT22;3163;51.516;4.000;2023-10-09T11:35:10;22.50;99.90
6260;DHT22;3163;51.516;4.000;2023-10-09T11:37:36;22.60;99.90
6260;DHT22;3163;51.516;4.000;2023-10-09T11:40:26;22.60;99.90
6260;DHT22;3163;51.516;4.000;2023-10-09T11:42:59;22.60;99.90
6260;DHT22;3163;51.516;4.000;2023-10-09T11:45:26;22.80;99.90
6260;DHT22;3163;51.516;4.000;2023-10-09T11:47:57;22.80;99.90
6260;DHT22;3163;51.516;4.000;2023-10-09T11:53:09;22.90;99.90
6260;DHT22;3163;51.516;4.000;2023-10-09T11:55:51;22.90;99.90
6260;DHT22;3163;51.516;4.000;2023-10-09T11:58:21;23.00;99.90
6260;DHT22;3163;51.516;4.000;2023-10-09T12:00:57;22.90;99.90
6260;DHT22;3163;51.516;4.000;2023-10-09T12:03:30;23.00;99.90
6260;DHT22;3163;51.516;4.000;2023-10-09T12:06:01;23.00;99.90
6260;DHT22;3163;51.516;4.000;2023-10-09T12:08:38;23.10;99.90
6260;DHT22;3163;51.516;4.000;2023-10-09T12:11:06;23.10;99.90
6260;DHT22;3163;51.516;4.000;2023-10-09T12:13:35;23.20;99.90
6260;DHT22;3163;51.516;4.000;2023-10-09T12:16:03;23.30;99.90
6260;DHT22;3163;51.516;4.000;2023-10-09T12:18:33;23.20;99.90
6260;DHT22;3163;51.516;4.000;2023-10-09T12:21:00;23.20;99.90
6260;DHT22;3163;51.516;4.000;2023-10-09T12:23:29;23.10;99.90
6260;DHT22;3163;51.516;4.000;2023-10-09T12:26:01;23.10;99.90
6260;DHT22;3163;51.516;4.000;2023-10-09T12:28:27;23.10;99.90
6260;DHT22;3163;51.516;4.000;2023-10-09T12:30:53;23.20;99.90
6260;DHT22;3163;51.516;4.000;2023-10-09T12:33:20;23.30;99.90
6260;DHT22;3163;51.516;4.000;2023-10-09T12:35:57;23.40;99.90
6260;DHT22;3163;51.516;4.000;2023-10-09T12:38:28;23.40;99.90
6260;DHT22;3163;51.516;4.000;2023-10-09T12:41:03;23.60;99.90
6260;DHT22;3163;51.516;4.000;2023-10-09T12:44:05;23.60;99.90
6260;DHT22;3163;51.516;4.000;2023-10-09T12:46:37;23.60;99.90
6260;DHT22;3163;51.516;4.000;2023-10-09T12:49:03;23.50;99.90
6260;DHT22;3163;51.516;4.000;2023-10-09T12:51:29;23.30;99.90
6260;DHT22;3163;51.516;4.000;2023-10-09T12:53:57;23.40;99.90
6260;DHT22;3163;51.516;4.000;2023-10-09T12:56:24;23.50;99.90
6260;DHT22;3163;51.516;4.000;2023-10-09T12:59:01;23.60;99.90
6260;DHT22;3163;51.516;4.000;2023-10-09T13:01:27;23.60;99.90
6260;DHT22;3163;51.516;4.000;2023-10-09T13:04:00;23.60;99.90
6260;DHT22;3163;51.516;4.000;2023-10-09T13:06:26;23.50;99.90
6260;DHT22;3163;51.516;4.000;2023-10-09T13:08:53;23.50;99.90
6260;DHT22;3163;51.516;4.000;2023-10-09T13:11:21;23.40;99.90
6260;DHT22;3163;51.516;4.000;2023-10-09T13:13:47;23.30;99.90
6260;DHT22;3163;51.516;4.000;2023-10-09T13:16:20;23.10;99.90
6260;DHT22;3163;51.516;4.000;2023-10-09T13:18:57;23.30;99.90
6260;DHT22;3163;51.516;4.000;2023-10-09T13:21:26;23.40;99.90
6260;DHT22;3163;51.516;4.000;2023-10-09T13:23:52;23.40;99.90
6260;DHT22;3163;51.516;4.000;2023-10-09T13:26:21;23.40;99.90
6260;DHT22;3163;51.516;4.000;2023-10-09T13:28:58;23.30;99.90
6260;DHT22;3163;51.516;4.000;2023-10-09T13:31:29;23.30;99.90
6260;DHT22;3163;51.516;4.000;2023-10-09T13:33:57;23.40;99.90
6260;DHT22;3163;51.516;4.000;2023-10-09T13:36:26;23.40;99.90
6260;DHT22;3163;51.516;4.000;2023-10-09T13:38:54;23.30;99.90
6260;DHT22;3163;51.516;4.000;2023-10-09T13:41:21;23.10;99.90
6260;DHT22;3163;51.516;4.000;2023-10-09T13:43:46;23.00;99.90
6260;DHT22;3163;51.516;4.000;2023-10-09T13:46:12;23.10;99.90
6260;DHT22;3163;51.516;4.000;2023-10-09T13:48:42;23.10;99.90
6260;DHT22;3163;51.516;4.000;2023-10-09T13:51:09;23.20;99.90
6260;DHT22;3163;51.516;4.000;2023-10-09T13:53:40;23.30;99.90
6260;DHT22;3163;51.516;4.000;2023-10-09T13:56:17;23.20;99.90
6260;DHT22;3163;51.516;4.000;2023-10-09T13:58:50;23.30;99.90
6260;DHT22;3163;51.516;4.000;2023-10-09T14:01:19;23.20;99.90
6260;DHT22;3163;51.516;4.000;2023-10-09T14:03:58;23.20;99.90
6260;DHT22;3163;51.516;4.000;2023-10-09T14:06:26;23.10;99.90
6260;DHT22;3163;51.516;4.000;2023-10-09T14:11:24;23.30;99.90
6260;DHT22;3163;51.516;4.000;2023-10-09T14:13:51;23.30;99.90
6260;DHT22;3163;51.516;4.000;2023-10-09T14:16:17;23.40;99.90
6260;DHT22;3163;51.516;4.000;2023-10-09T14:18:58;23.50;99.90
6260;DHT22;3163;51.516;4.000;2023-10-09T14:21:32;23.60;99.90
6260;DHT22;3163;51.516;4.000;2023-10-09T14:24:04;23.40;99.90
6260;DHT22;3163;51.516;4.000;2023-10-09T14:26:41;23.40;99.90
6260;DHT22;3163;51.516;4.000;2023-10-09T14:29:06;23.40;99.90
6260;DHT22;3163;51.516;4.000;2023-10-09T14:31:32;23.40;99.90
6260;DHT22;3163;51.516;4.000;2023-10-09T14:34:04;23.50;99.90
6260;DHT22;3163;51.516;4.000;2023-10-09T14:36:30;23.60;99.90
6260;DHT22;3163;51.516;4.000;2023-10-09T14:38:59;23.70;99.90
6260;DHT22;3163;51.516;4.000;2023-10-09T14:41:26;23.70;99.90
6260;DHT22;3163;51.516;4.000;2023-10-09T14:43:53;23.80;99.90
6260;DHT22;3163;51.516;4.000;2023-10-09T14:46:20;23.80;99.90
6260;DHT22;3163;51.516;4.000;2023-10-09T14:48:53;23.70;99.90
6260;DHT22;3163;51.516;4.000;2023-10-09T14:51:23;23.50;99.90
6260;DHT22;3163;51.516;4.000;2023-10-09T14:53:56;23.40;99.90
6260;DHT22;3163;51.516;4.000;2023-10-09T14:56:30;23.50;99.90
6260;DHT22;3163;51.516;4.000;2023-10-09T14:58:57;23.40;99.90
6260;DHT22;3163;51.516;4.000;2023-10-09T15:01:25;23.50;99.90
6260;DHT22;3163;51.516;4.000;2023-10-09T15:03:57;23.50;99.90
6260;DHT22;3163;51.516;4.000;2023-10-09T15:08:52;23.20;99.90
6260;DHT22;3163;51.516;4.000;2023-10-09T15:11:22;23.30;99.90
6260;DHT22;3163;51.516;4.000;2023-10-09T15:13:49;23.30;99.90
6260;DHT22;3163;51.516;4.000;2023-10-09T15:16:15;23.30;99.90
6260;DHT22;3163;51.516;4.000;2023-10-09T15:18:40;23.30;99.90
6260;DHT22;3163;51.516;4.000;2023-10-09T15:21:06;23.30;99.90
6260;DHT22;3163;51.516;4.000;2023-10-09T15:23:34;23.40;99.90
6260;DHT22;3163;51.516;4.000;2023-10-09T15:26:02;23.40;99.90
6260;DHT22;3163;51.516;4.000;2023-10-09T15:28:27;23.40;99.90
6260;DHT22;3163;51.516;4.000;2023-10-09T15:30:58;23.40;99.90
6260;DHT22;3163;51.516;4.000;2023-10-09T15:33:24;23.40;99.90
6260;DHT22;3163;51.516;4.000;2023-10-09T15:35:56;23.40;99.90
6260;DHT22;3163;51.516;4.000;2023-10-09T15:38:22;23.30;99.90
6260;DHT22;3163;51.516;4.000;2023-10-09T15:40:49;23.20;99.90
6260;DHT22;3163;51.516;4.000;2023-10-09T15:43:14;23.00;99.90
6260;DHT22;3163;51.516;4.000;2023-10-09T15:45:44;22.80;99.90
6260;DHT22;3163;51.516;4.000;2023-10-09T15:48:14;23.00;99.90
6260;DHT22;3163;51.516;4.000;2023-10-09T15:50:45;22.80;99.90
6260;DHT22;3163;51.516;4.000;2023-10-09T15:53:18;22.70;99.90
6260;DHT22;3163;51.516;4.000;2023-10-09T15:55:44;22.70;99.90
6260;DHT22;3163;51.516;4.000;2023-10-09T15:58:10;22.20;99.90
6260;DHT22;3163;51.516;4.000;2023-10-09T16:00:36;22.50;99.90
6260;DHT22;3163;51.516;4.000;2023-10-09T16:03:04;22.60;99.90
6260;DHT22;3163;51.516;4.000;2023-10-09T16:05:33;22.30;99.90
6260;DHT22;3163;51.516;4.000;2023-10-09T16:08:01;22.50;99.90
6260;DHT22;3163;51.516;4.000;2023-10-09T16:10:29;22.70;99.90
6260;DHT22;3163;51.516;4.000;2023-10-09T16:12:56;22.80;99.90
6260;DHT22;3163;51.516;4.000;2023-10-09T16:15:23;22.80;99.90
6260;DHT22;3163;51.516;4.000;2023-10-09T16:17:50;22.80;99.90
6260;DHT22;3163;51.516;4.000;2023-10-09T16:20:29;22.80;99.90
6260;DHT22;3163;51.516;4.000;2023-10-09T16:22:58;22.80;99.90
6260;DHT22;3163;51.516;4.000;2023-10-09T16:25:32;22.80;99.90
6260;DHT22;3163;51.516;4.000;2023-10-09T16:28:01;22.70;99.90
6260;DHT22;3163;51.516;4.000;2023-10-09T16:30:27;22.50;99.90
6260;DHT22;3163;51.516;4.000;2023-10-09T16:32:53;22.40;99.90
6260;DHT22;3163;51.516;4.000;2023-10-09T16:35:19;22.30;99.90
6260;DHT22;3163;51.516;4.000;2023-10-09T16:37:48;22.30;99.90
6260;DHT22;3163;51.516;4.000;2023-10-09T16:40:21;22.40;99.90
6260;DHT22;3163;51.516;4.000;2023-10-09T16:42:47;22.50;99.90
6260;DHT22;3163;51.516;4.000;2023-10-09T16:45:15;22.50;99.90
6260;DHT22;3163;51.516;4.000;2023-10-09T16:47:47;22.50;99.90
6260;DHT22;3163;51.516;4.000;2023-10-09T16:50:14;22.50;99.90
6260;DHT22;3163;51.516;4.000;2023-10-09T16:52:43;22.50;99.90
6260;DHT22;3163;51.516;4.000;2023-10-09T16:55:10;22.30;99.90
6260;DHT22;3163;51.516;4.000;2023-10-09T16:57:40;22.10;99.90
6260;DHT22;3163;51.516;4.000;2023-10-09T17:00:25;22.10;99.90
6260;DHT22;3163;51.516;4.000;2023-10-09T17:02:57;22.10;99.90
6260;DHT22;3163;51.516;4.000;2023-10-09T17:05:23;22.20;99.90
6260;DHT22;3163;51.516;4.000;2023-10-09T17:07:56;22.10;99.90
6260;DHT22;3163;51.516;4.000;2023-10-09T17:10:23;22.00;99.90
6260;DHT22;3163;51.516;4.000;2023-10-09T17:12:54;22.00;99.90